Aidablu — IBWX — position and weather

sailwx.info

Track history (hours):
 
Tides and Currents Weather Stations Pressure Air Temp Water Temp Dewpoint Dewpoint Depression Visibility Wind Speed Wind Dir Waves Ship Positions

Aidablu

Last reported at 2017-Jun-23 20:30 UTC. Time now 2017-Jun-23 20:35 UTC.
Position N 44°31' E 014°02'.

Length 252 m; draft 7.3 m.

Type: Ship. MMSI: 247282500.

Date/timePositionNaut miles runAvg speedWind from/ knotsBaromVisibWave heightAir tempDewpointWater temp
2017-Jun-23 20:30N 44°31' E 014°02'713.6
2017-Jun-23 20:00N 44°29' E 014°11'713.6
2017-Jun-23 19:29N 44°27' E 014°21'1713.3
2017-Jun-23 18:14N 44°20' E 014°42'313.3
2017-Jun-23 18:00N 44°19' E 014°46'713.4
2017-Jun-23 17:30N 44°16' E 014°54'813.4
2017-Jun-23 16:55N 44°12' E 015°03'10 0.9
2017-Jun-23 05:40N 44°16' E 014°52'316.6
2017-Jun-23 05:30N 44°18' E 014°49'916.4
2017-Jun-23 04:59N 44°22' E 014°38'511.2
2017-Jun-23 04:30N 44°19' E 014°32'1117.8
2017-Jun-23 03:52N 44°09' E 014°39'1016.1
2017-Jun-23 03:15N 44°01' E 014°48'414.1
2017-Jun-23 02:56N 43°58' E 014°51'614.0
2017-Jun-23 02:29N 43°53' E 014°57'714.1
2017-Jun-23 02:00N 43°48' E 015°03'814.0
2017-Jun-23 01:25N 43°42' E 015°11'614.0
2017-Jun-23 01:00N 43°39' E 015°18'2513.8
2017-Jun-22 23:11N 43°24' E 015°46'1713.2
2017-Jun-22 21:54N 43°14' E 016°05'1513.2
2017-Jun-22 20:46N 43°05' E 016°21'613.4
2017-Jun-22 20:18N 43°01' E 016°27'513.5
2017-Jun-22 19:54N 42°57' E 016°32'613.0
2017-Jun-22 19:26N 42°53' E 016°39'196 4.3
2017-Jun-20 21:25N 40°14' E 019°12'308 7.6
2017-Jun-19 04:52N 43°51' E 014°17'513.5
2017-Jun-19 04:30N 43°55' E 014°13'813.6
2017-Jun-19 03:55N 44°01' E 014°07'613.7
2017-Jun-19 03:27N 44°06' E 014°01'613.6
2017-Jun-19 03:00N 44°11' E 013°56'713.5
2017-Jun-19 02:30N 44°17' E 013°51'713.6
2017-Jun-19 02:01N 44°23' E 013°46'713.6
2017-Jun-19 01:30N 44°29' E 013°41'713.5
2017-Jun-19 01:00N 44°34' E 013°36'713.6
2017-Jun-19 00:30N 44°40' E 013°31'714.0
2017-Jun-19 00:00N 44°46' E 013°25'714.1
2017-Jun-18 23:30N 44°52' E 013°20'713.7
2017-Jun-18 23:00N 44°57' E 013°14'713.9
2017-Jun-18 22:30N 45°02' E 013°07'713.6
2017-Jun-18 22:00N 45°07' E 013°00'713.4
2017-Jun-18 21:30N 45°12' E 012°54'713.2
2017-Jun-18 21:00N 45°16' E 012°47'713.3
2017-Jun-18 20:30N 45°19' E 012°38'713.3
2017-Jun-18 20:00N 45°22' E 012°31'510.6
2017-Jun-18 19:30N 45°26' E 012°25'3 5.7
2017-Jun-18 19:00N 45°26' E 012°21'1 2.8
2017-Jun-18 18:30N 45°26' E 012°19'0 0.0
2017-Jun-18 17:58N 45°26' E 012°19'0 0.0
2017-Jun-18 17:25N 45°26' E 012°19'0 0.0
2017-Jun-18 16:58N 45°26' E 012°19'0 0.0
2017-Jun-18 16:19N 45°26' E 012°19'0 0.0
2017-Jun-18 15:54N 45°26' E 012°19'0 0.0
2017-Jun-18 14:45N 45°26' E 012°19'0 0.0
2017-Jun-18 14:00N 45°26' E 012°19'0 0.0
2017-Jun-18 13:17N 45°26' E 012°19'0 0.0
2017-Jun-18 12:59N 45°26' E 012°19'0 0.0
2017-Jun-18 12:23N 45°26' E 012°19'0 0.0
2017-Jun-18 11:59N 45°26' E 012°19'0 0.0
2017-Jun-18 11:10N 45°26' E 012°19'0 0.0
2017-Jun-18 10:55N 45°26' E 012°19'0 0.0
2017-Jun-18 09:46N 45°26' E 012°19'0 0.0
2017-Jun-18 09:22N 45°26' E 012°19'0 0.0
2017-Jun-18 08:57N 45°26' E 012°19'0 0.0
2017-Jun-18 08:30N 45°26' E 012°19'0 0.0
2017-Jun-18 08:00N 45°26' E 012°19'0 0.0
2017-Jun-18 07:30N 45°26' E 012°19'0 0.0
2017-Jun-18 06:54N 45°26' E 012°19'0 0.0
2017-Jun-18 06:17N 45°26' E 012°19'0 0.0
2017-Jun-18 05:56N 45°26' E 012°19'0 0.0
2017-Jun-18 05:29N 45°26' E 012°19'0 0.0
2017-Jun-18 04:50N 45°26' E 012°19'0 0.0
2017-Jun-18 04:28N 45°26' E 012°19'0 0.0
2017-Jun-18 03:58N 45°26' E 012°19'0 0.0
2017-Jun-18 03:28N 45°26' E 012°19'0 0.0
2017-Jun-18 02:55N 45°26' E 012°19'0 0.0
2017-Jun-18 02:22N 45°26' E 012°19'0 0.0
2017-Jun-18 02:00N 45°26' E 012°19'0 0.0
2017-Jun-18 01:30N 45°26' E 012°19'0 0.0
2017-Jun-18 00:57N 45°26' E 012°19'0 0.0
2017-Jun-18 00:30N 45°26' E 012°19'0 0.0
2017-Jun-17 23:57N 45°26' E 012°19'0 0.0
2017-Jun-17 23:23N 45°26' E 012°19'0 0.0
2017-Jun-17 22:59N 45°26' E 012°19'0 0.0
2017-Jun-17 22:29N 45°26' E 012°19'0 0.0
2017-Jun-17 21:59N 45°26' E 012°19'0 0.0
2017-Jun-17 21:28N 45°26' E 012°19'0 0.0
2017-Jun-17 20:58N 45°26' E 012°19'0 0.0
2017-Jun-17 20:28N 45°26' E 012°19'0 0.0
2017-Jun-17 19:58N 45°26' E 012°19'0 0.0
2017-Jun-17 19:25N 45°26' E 012°19'0 0.0
2017-Jun-17 18:48N 45°26' E 012°19'0 0.0
2017-Jun-17 18:30N 45°26' E 012°19'0 0.0
2017-Jun-17 18:00N 45°26' E 012°19'0 0.0
2017-Jun-17 17:30N 45°26' E 012°19'0 0.0
2017-Jun-17 16:50N 45°26' E 012°19'0 0.0
2017-Jun-17 16:29N 45°26' E 012°19'0 0.0
2017-Jun-17 15:59N 45°26' E 012°19'0 0.0
2017-Jun-17 15:26N 45°26' E 012°19'0 0.0
2017-Jun-17 14:56N 45°26' E 012°19'0 0.0
2017-Jun-17 14:28N 45°26' E 012°19'0 0.0
2017-Jun-17 12:58N 45°26' E 012°19'0 0.0
2017-Jun-17 12:22N 45°26' E 012°19'0 0.0
2017-Jun-17 11:57N 45°26' E 012°19'0 0.0
2017-Jun-17 11:24N 45°26' E 012°19'0 0.0
2017-Jun-17 11:00N 45°26' E 012°19'0 0.0
2017-Jun-17 10:30N 45°26' E 012°19'0 0.0
2017-Jun-17 09:59N 45°26' E 012°19'0 0.0
2017-Jun-17 09:29N 45°26' E 012°19'0 0.0
2017-Jun-17 08:56N 45°26' E 012°19'0 0.0
2017-Jun-17 08:26N 45°26' E 012°19'0 0.0
2017-Jun-17 07:56N 45°26' E 012°19'0 0.0
2017-Jun-17 07:19N 45°26' E 012°19'0 0.0
2017-Jun-17 06:55N 45°26' E 012°19'0 0.0
2017-Jun-17 06:28N 45°26' E 012°19'0 0.0
2017-Jun-17 05:58N 45°26' E 012°19'0 0.0
2017-Jun-17 05:30N 45°26' E 012°19'1 1.7
2017-Jun-17 04:57N 45°26' E 012°20'2 4.8
2017-Jun-17 04:30N 45°26' E 012°23'4 8.7
2017-Jun-17 04:00N 45°24' E 012°28'611.6
2017-Jun-17 03:30N 45°19' E 012°32'612.8
2017-Jun-17 03:00N 45°14' E 012°38'813.4
2017-Jun-17 02:26N 45°10' E 012°47'613.4
2017-Jun-17 02:00N 45°07' E 012°53'611.8
2017-Jun-17 01:30N 45°04' E 013°01'713.3
2017-Jun-17 01:00N 45°01' E 013°09'713.4
2017-Jun-17 00:30N 44°58' E 013°18'5 9.6
2017-Jun-17 00:00N 44°54' E 013°23'4 7.5
2017-Jun-16 23:30N 44°51' E 013°26'4 7.4
2017-Jun-16 23:00N 44°48' E 013°29'4 7.7
2017-Jun-16 22:30N 44°45' E 013°32'714.0
2017-Jun-16 22:00N 44°40' E 013°39'714.1
2017-Jun-16 21:30N 44°35' E 013°45'714.0
2017-Jun-16 20:59N 44°33' E 013°55'714.0
2017-Jun-16 20:30N 44°31' E 014°04'  
Track history (hours):
 
Tides and Currents Weather Stations Pressure Air Temp Water Temp Dewpoint Dewpoint Depression Visibility Wind Speed Wind Dir Waves Ship Positions

Aidablu

Last reported at 2017-Jun-23 20:30 UTC. Time now 2017-Jun-23 20:35 UTC.
Position N 44°31' E 014°02'.

Length 252 m; draft 7.3 m.

Type: Ship. MMSI: 247282500.

Date/timePositionNaut miles runAvg speedWind from/ knotsBaromVisibWave heightAir tempDewpointWater temp
2017-Jun-23 20:30N 44°31' E 014°02'713.6
2017-Jun-23 20:00N 44°29' E 014°11'713.6
2017-Jun-23 19:29N 44°27' E 014°21'1713.3
2017-Jun-23 18:14N 44°20' E 014°42'313.3
2017-Jun-23 18:00N 44°19' E 014°46'713.4
2017-Jun-23 17:30N 44°16' E 014°54'813.4
2017-Jun-23 16:55N 44°12' E 015°03'10 0.9
2017-Jun-23 05:40N 44°16' E 014°52'316.6
2017-Jun-23 05:30N 44°18' E 014°49'916.4
2017-Jun-23 04:59N 44°22' E 014°38'511.2
2017-Jun-23 04:30N 44°19' E 014°32'1117.8
2017-Jun-23 03:52N 44°09' E 014°39'1016.1
2017-Jun-23 03:15N 44°01' E 014°48'414.1
2017-Jun-23 02:56N 43°58' E 014°51'614.0
2017-Jun-23 02:29N 43°53' E 014°57'714.1
2017-Jun-23 02:00N 43°48' E 015°03'814.0
2017-Jun-23 01:25N 43°42' E 015°11'614.0
2017-Jun-23 01:00N 43°39' E 015°18'2513.8
2017-Jun-22 23:11N 43°24' E 015°46'1713.2
2017-Jun-22 21:54N 43°14' E 016°05'1513.2
2017-Jun-22 20:46N 43°05' E 016°21'613.4
2017-Jun-22 20:18N 43°01' E 016°27'513.5
2017-Jun-22 19:54N 42°57' E 016°32'613.0
2017-Jun-22 19:26N 42°53' E 016°39'196 4.3
2017-Jun-20 21:25N 40°14' E 019°12'308 7.6
2017-Jun-19 04:52N 43°51' E 014°17'513.5
2017-Jun-19 04:30N 43°55' E 014°13'813.6
2017-Jun-19 03:55N 44°01' E 014°07'613.7
2017-Jun-19 03:27N 44°06' E 014°01'613.6
2017-Jun-19 03:00N 44°11' E 013°56'713.5
2017-Jun-19 02:30N 44°17' E 013°51'713.6
2017-Jun-19 02:01N 44°23' E 013°46'713.6
2017-Jun-19 01:30N 44°29' E 013°41'713.5
2017-Jun-19 01:00N 44°34' E 013°36'713.6
2017-Jun-19 00:30N 44°40' E 013°31'714.0
2017-Jun-19 00:00N 44°46' E 013°25'714.1
2017-Jun-18 23:30N 44°52' E 013°20'713.7
2017-Jun-18 23:00N 44°57' E 013°14'713.9
2017-Jun-18 22:30N 45°02' E 013°07'713.6
2017-Jun-18 22:00N 45°07' E 013°00'713.4
2017-Jun-18 21:30N 45°12' E 012°54'713.2
2017-Jun-18 21:00N 45°16' E 012°47'713.3
2017-Jun-18 20:30N 45°19' E 012°38'713.3
2017-Jun-18 20:00N 45°22' E 012°31'510.6
2017-Jun-18 19:30N 45°26' E 012°25'3 5.7
2017-Jun-18 19:00N 45°26' E 012°21'1 2.8
2017-Jun-18 18:30N 45°26' E 012°19'0 0.0
2017-Jun-18 17:58N 45°26' E 012°19'0 0.0
2017-Jun-18 17:25N 45°26' E 012°19'0 0.0
2017-Jun-18 16:58N 45°26' E 012°19'0 0.0
2017-Jun-18 16:19N 45°26' E 012°19'0 0.0
2017-Jun-18 15:54N 45°26' E 012°19'0 0.0
2017-Jun-18 14:45N 45°26' E 012°19'0 0.0
2017-Jun-18 14:00N 45°26' E 012°19'0 0.0
2017-Jun-18 13:17N 45°26' E 012°19'0 0.0
2017-Jun-18 12:59N 45°26' E 012°19'0 0.0
2017-Jun-18 12:23N 45°26' E 012°19'0 0.0
2017-Jun-18 11:59N 45°26' E 012°19'0 0.0
2017-Jun-18 11:10N 45°26' E 012°19'0 0.0
2017-Jun-18 10:55N 45°26' E 012°19'0 0.0
2017-Jun-18 09:46N 45°26' E 012°19'0 0.0
2017-Jun-18 09:22N 45°26' E 012°19'0 0.0
2017-Jun-18 08:57N 45°26' E 012°19'0 0.0
2017-Jun-18 08:30N 45°26' E 012°19'0 0.0
2017-Jun-18 08:00N 45°26' E 012°19'0 0.0
2017-Jun-18 07:30N 45°26' E 012°19'0 0.0
2017-Jun-18 06:54N 45°26' E 012°19'0 0.0
2017-Jun-18 06:17N 45°26' E 012°19'0 0.0
2017-Jun-18 05:56N 45°26' E 012°19'0 0.0
2017-Jun-18 05:29N 45°26' E 012°19'0 0.0
2017-Jun-18 04:50N 45°26' E 012°19'0 0.0
2017-Jun-18 04:28N 45°26' E 012°19'0 0.0
2017-Jun-18 03:58N 45°26' E 012°19'0 0.0
2017-Jun-18 03:28N 45°26' E 012°19'0 0.0
2017-Jun-18 02:55N 45°26' E 012°19'0 0.0
2017-Jun-18 02:22N 45°26' E 012°19'0 0.0
2017-Jun-18 02:00N 45°26' E 012°19'0 0.0
2017-Jun-18 01:30N 45°26' E 012°19'0 0.0
2017-Jun-18 00:57N 45°26' E 012°19'0 0.0
2017-Jun-18 00:30N 45°26' E 012°19'0 0.0
2017-Jun-17 23:57N 45°26' E 012°19'0 0.0
2017-Jun-17 23:23N 45°26' E 012°19'0 0.0
2017-Jun-17 22:59N 45°26' E 012°19'0 0.0
2017-Jun-17 22:29N 45°26' E 012°19'0 0.0
2017-Jun-17 21:59N 45°26' E 012°19'0 0.0
2017-Jun-17 21:28N 45°26' E 012°19'0 0.0
2017-Jun-17 20:58N 45°26' E 012°19'0 0.0
2017-Jun-17 20:28N 45°26' E 012°19'0 0.0
2017-Jun-17 19:58N 45°26' E 012°19'0 0.0
2017-Jun-17 19:25N 45°26' E 012°19'0 0.0
2017-Jun-17 18:48N 45°26' E 012°19'0 0.0
2017-Jun-17 18:30N 45°26' E 012°19'0 0.0
2017-Jun-17 18:00N 45°26' E 012°19'0 0.0
2017-Jun-17 17:30N 45°26' E 012°19'0 0.0
2017-Jun-17 16:50N 45°26' E 012°19'0 0.0
2017-Jun-17 16:29N 45°26' E 012°19'0 0.0
2017-Jun-17 15:59N 45°26' E 012°19'0 0.0
2017-Jun-17 15:26N 45°26' E 012°19'0 0.0
2017-Jun-17 14:56N 45°26' E 012°19'0 0.0
2017-Jun-17 14:28N 45°26' E 012°19'0 0.0
2017-Jun-17 12:58N 45°26' E 012°19'0 0.0
2017-Jun-17 12:22N 45°26' E 012°19'0 0.0
2017-Jun-17 11:57N 45°26' E 012°19'0 0.0
2017-Jun-17 11:24N 45°26' E 012°19'0 0.0
2017-Jun-17 11:00N 45°26' E 012°19'0 0.0
2017-Jun-17 10:30N 45°26' E 012°19'0 0.0
2017-Jun-17 09:59N 45°26' E 012°19'0 0.0
2017-Jun-17 09:29N 45°26' E 012°19'0 0.0
2017-Jun-17 08:56N 45°26' E 012°19'0 0.0
2017-Jun-17 08:26N 45°26' E 012°19'0 0.0
2017-Jun-17 07:56N 45°26' E 012°19'0 0.0
2017-Jun-17 07:19N 45°26' E 012°19'0 0.0
2017-Jun-17 06:55N 45°26' E 012°19'0 0.0
2017-Jun-17 06:28N 45°26' E 012°19'0 0.0
2017-Jun-17 05:58N 45°26' E 012°19'0 0.0
2017-Jun-17 05:30N 45°26' E 012°19'1 1.7
2017-Jun-17 04:57N 45°26' E 012°20'2 4.8
2017-Jun-17 04:30N 45°26' E 012°23'4 8.7
2017-Jun-17 04:00N 45°24' E 012°28'611.6
2017-Jun-17 03:30N 45°19' E 012°32'612.8
2017-Jun-17 03:00N 45°14' E 012°38'813.4
2017-Jun-17 02:26N 45°10' E 012°47'613.4
2017-Jun-17 02:00N 45°07' E 012°53'611.8
2017-Jun-17 01:30N 45°04' E 013°01'713.3
2017-Jun-17 01:00N 45°01' E 013°09'713.4
2017-Jun-17 00:30N 44°58' E 013°18'5 9.6
2017-Jun-17 00:00N 44°54' E 013°23'4 7.5
2017-Jun-16 23:30N 44°51' E 013°26'4 7.4
2017-Jun-16 23:00N 44°48' E 013°29'4 7.7
2017-Jun-16 22:30N 44°45' E 013°32'714.0
2017-Jun-16 22:00N 44°40' E 013°39'714.1
2017-Jun-16 21:30N 44°35' E 013°45'714.0
2017-Jun-16 20:59N 44°33' E 013°55'714.0
2017-Jun-16 20:30N 44°31' E 014°04'  

Dump ship's entire track history